Terminal Aerodrome Forecast
Issued by NWS

Home | Current Version | Previous Version | Text Only | Print | Product List | Glossary Off
Versions: 1 2 3 4 5 6 7 8 9 10 11 12 13 14 15 16 17 18 19 20 21 22 23 24 25 26 27

193
FTUS43 KLOT 251125
TAFDPA
TAF
KDPA 251125Z 2512/2612 34010KT 6SM BR SCT009 OVC015
      TEMPO 2512/2515 5SM BR BKN009
     FM251500 34012KT P6SM BKN020
     FM252100 34010KT P6SM SCT040
     FM260200 VRB03KT 6SM BR FEW040 SCT250=

USA.gov is the U.S. government's official web portal to all federal, state and local government web resources and services.